Time;durP1;ratioP1;P1;durP2;ratioP2;P2;SDS_P1;SDS_P2;PMS_P1;PMS_P2;Temp;Humidity;BMP_temperature;BMP_pressure;BME280_temperature;BME280_humidity;BME280_pressure;Samples;Min_cycle;Max_cycle;Signal;HPM_P1;HPM_P2
2023/04/25 07:01:47;;;;;;;0.20;0.20;;;11.20;99.90;14.60;101317.00;;;;6217412;23;20173;-66
2023/04/25 07:04:50;;;;;;;0.90;0.37;;;11.20;99.90;15.60;101272.00;;;;6191522;23;20245;-66
2023/04/25 07:07:36;;;;;;;1.23;1.23;;;11.50;99.90;15.30;101318.00;;;;6215691;23;20246;-66
2023/04/25 07:10:02;;;;;;;0.20;0.20;;;11.50;99.90;14.40;101321.00;;;;6215808;23;20146;-65
2023/04/25 07:12:28;;;;;;;0.73;0.73;;;11.50;99.90;15.10;101318.00;;;;6215796;23;20224;-66
2023/04/25 07:14:54;;;;;;;0.23;0.23;;;11.40;99.90;14.70;101322.00;;;;6217740;23;20571;-66
2023/04/25 07:18:09;;;;;;;0.10;0.10;;;11.30;99.90;16.60;101300.00;;;;6190889;23;20154;-66
2023/04/25 07:20:35;;;;;;;0.77;0.77;;;12.10;99.90;16.20;101302.00;;;;6215614;23;20575;-66
2023/04/25 07:23:48;;;;;;;0.10;0.10;;;13.20;99.90;19.10;101246.00;;;;6190554;23;20186;-66
2023/04/25 07:26:14;;;;;;;0.10;0.10;;;14.40;99.90;20.70;101252.00;;;;6190971;23;20162;-66
2023/04/25 07:29:18;;;;;;;0.10;0.10;;;16.10;99.90;20.00;101280.00;;;;6190192;23;20167;-66
2023/04/25 07:32:24;;;;;;;0.20;0.20;;;17.20;99.90;21.20;101262.00;;;;6190897;23;20209;-66
2023/04/25 07:34:57;;;;;;;0.10;0.10;;;17.10;99.90;19.30;101372.00;;;;6190968;23;20485;-66
2023/04/25 07:37:23;;;;;;;0.10;0.10;;;16.30;99.90;19.80;101397.00;;;;6190529;23;20182;-66
2023/04/25 07:39:51;;;;;;;0.10;0.10;;;16.40;99.90;20.90;101352.00;;;;6216026;23;20603;-66
2023/04/25 07:42:17;;;;;;;0.40;0.30;;;17.00;99.90;18.80;101376.00;;;;6190817;23;20232;-66
2023/04/25 07:44:43;;;;;;;0.30;0.30;;;16.80;99.90;19.70;101387.00;;;;6215536;23;20147;-66
2023/04/25 07:47:13;;;;;;;0.33;0.33;;;16.60;99.90;17.60;101392.00;;;;6217225;23;20148;-66
2023/04/25 07:49:41;;;;;;;0.10;0.10;;;15.30;99.90;20.30;101372.00;;;;6215875;23;20169;-66
2023/04/25 07:52:41;;;;;;;0.20;0.20;;;16.00;99.90;20.10;101378.00;;;;6217194;23;20153;-66
2023/04/25 07:55:07;;;;;;;0.63;0.63;;;16.80;99.90;17.50;101396.00;;;;6190489;23;20168;-66
2023/04/25 07:58:21;;;;;;;0.10;0.10;;;15.70;99.90;17.90;101392.00;;;;6216727;23;20590;-66
2023/04/25 08:00:48;;;;;;;0.20;0.20;;;14.90;99.90;16.80;101408.00;;;;6215664;23;20180;-65
2023/04/25 08:03:52;;;;;;;1.27;1.17;;;14.10;99.90;15.80;101409.00;;;;6215655;23;20222;-65
2023/04/25 08:06:18;;;;;;;0.30;0.30;;;12.90;99.90;15.10;101436.00;;;;6216342;23;20213;-66
2023/04/25 08:09:02;;;;;;;1.07;1.00;;;12.30;99.90;14.00;101434.00;;;;6215328;23;20230;-65
2023/04/25 08:11:29;;;;;;;0.30;0.30;;;11.60;99.90;14.80;101422.00;;;;6216804;23;20143;-65
2023/04/25 08:13:55;;;;;;;0.10;0.10;;;11.40;99.90;14.70;101433.00;;;;6190292;23;20156;-66
2023/04/25 08:16:21;;;;;;;0.30;0.30;;;11.40;99.90;14.70;101425.00;;;;6215217;23;20168;-65
2023/04/25 08:18:50;;;;;;;0.20;0.20;;;11.30;99.90;14.10;101433.00;;;;6217046;23;20231;-66
2023/04/25 08:21:16;;;;;;;0.20;0.20;;;11.20;99.90;14.40;101430.00;;;;6215290;23;20143;-65
2023/04/25 08:23:42;;;;;;;0.40;0.40;;;11.00;99.90;14.10;101438.00;;;;6190389;23;20250;-65
2023/04/25 08:26:08;;;;;;;0.10;0.10;;;10.90;99.90;13.90;101455.00;;;;6189917;23;20591;-66
2023/04/25 08:28:34;;;;;;;0.20;0.20;;;10.90;99.90;14.40;101454.00;;;;6215089;23;20177;-66
2023/04/25 08:31:26;;;;;;;0.20;0.20;;;10.70;99.90;14.50;101452.00;;;;6216978;23;20142;-66
2023/04/25 08:33:51;;;;;;;0.10;0.10;;;10.80;99.90;14.70;101459.00;;;;6204500;23;20163;-66
2023/04/25 08:36:18;;;;;;;0.20;0.20;;;10.80;99.90;15.20;101446.00;;;;6215073;23;20148;-66
2023/04/25 08:38:44;;;;;;;0.20;0.20;;;11.10;99.90;14.90;101465.00;;;;6215275;23;20142;-66
2023/04/25 08:41:12;;;;;;;0.10;0.10;;;11.30;99.90;15.80;101468.00;;;;6190043;23;20485;-66
2023/04/25 08:43:42;;;;;;;0.10;0.10;;;11.70;99.90;15.50;101459.00;;;;6215255;23;20206;-65
2023/04/25 08:46:08;;;;;;;0.20;0.20;;;11.70;99.90;15.60;101473.00;;;;6190118;23;20582;-66
2023/04/25 08:48:35;;;;;;;0.20;0.20;;;12.10;99.90;15.50;101481.00;;;;6215010;23;20147;-65
2023/04/25 08:51:03;;;;;;;0.10;0.10;;;12.20;99.90;16.10;101477.00;;;;6214985;23;20221;-65
2023/04/25 08:53:32;;;;;;;0.10;0.10;;;12.30;99.90;16.20;101471.00;;;;6190168;23;20163;-66
2023/04/25 08:56:04;;;;;;;0.40;0.40;;;12.50;99.90;16.80;101457.00;;;;6215328;23;20150;-66
2023/04/25 08:58:32;;;;;;;0.10;0.10;;;13.00;99.90;16.80;101477.00;;;;6214915;23;20603;-66
2023/04/25 09:00:58;;;;;;;0.30;0.30;;;13.20;99.90;17.70;101484.00;;;;6189604;23;20234;-66
2023/04/25 09:03:31;;;;;;;0.10;0.10;;;13.70;99.90;17.00;101497.00;;;;6214760;23;20170;-66
2023/04/25 09:05:58;;;;;;;0.10;0.10;;;13.70;99.90;15.60;101516.00;;;;6214797;23;20145;-66
2023/04/25 09:08:24;;;;;;;0.33;0.27;;;13.70;99.90;15.20;101506.00;;;;6215205;23;20145;-65
2023/04/25 09:10:50;;;;;;;5.20;1.53;;;12.90;99.90;16.60;101494.00;;;;6215963;23;20169;-66
2023/04/25 09:13:28;;;;;;;0.10;0.10;;;13.10;99.90;16.70;101514.00;;;;6215009;23;20156;-66
2023/04/25 09:15:58;;;;;;;0.20;0.20;;;13.10;99.90;16.90;101521.00;;;;6215576;23;20151;-66
2023/04/25 09:18:31;;;;;;;0.10;0.10;;;13.20;99.90;15.60;101545.00;;;;6214321;23;20173;-65
2023/04/25 09:21:34;;;;;;;0.63;0.53;;;12.50;99.90;15.50;101540.00;;;;6189705;23;20204;-66
2023/04/25 09:24:03;;;;;;;0.10;0.10;;;12.40;99.90;15.20;101558.00;;;;6102198;23;20246;-66
2023/04/25 09:26:32;;;;;;;0.10;0.10;;;12.10;99.90;15.90;101550.00;;;;6214659;23;20453;-66
2023/04/25 09:29:07;;;;;;;0.20;0.20;;;12.40;99.90;15.70;101552.00;;;;6213619;23;20385;-65
2023/04/25 09:31:34;;;;;;;0.37;0.37;;;12.60;99.90;15.50;101526.00;;;;6214325;23;20157;-66
2023/04/25 09:34:00;;;;;;;0.20;0.20;;;12.50;99.90;16.40;101553.00;;;;6214669;23;20479;-66
2023/04/25 09:36:27;;;;;;;0.90;0.87;;;13.10;99.90;16.90;101506.00;;;;6189388;23;20646;-66
2023/04/25 09:38:53;;;;;;;2.80;1.17;;;13.40;99.90;16.10;101558.00;;;;6214896;23;20173;-65
2023/04/25 09:42:08;;;;;;;0.33;0.33;;;13.00;99.90;15.70;101541.00;;;;6216032;23;20149;-65
2023/04/25 09:44:36;;;;;;;1.30;0.30;;;12.70;99.90;14.90;101570.00;;;;6214690;23;20575;-66
2023/04/25 09:47:47;;;;;;;0.20;0.20;;;12.20;99.90;15.10;101561.00;;;;6214483;23;20199;-65
2023/04/25 09:50:19;;;;;;;0.23;0.23;;;11.90;99.90;15.30;101558.00;;;;6189580;23;20220;-65
2023/04/25 09:52:45;;;;;;;0.17;0.17;;;12.00;99.90;14.20;101550.00;;;;6214717;23;20150;-66
2023/04/25 09:55:11;;;;;;;0.20;0.20;;;11.50;99.90;14.70;101542.00;;;;6216083;23;20143;-66
2023/04/25 09:57:41;;;;;;;0.10;0.10;;;11.30;99.90;15.10;101559.00;;;;6214085;23;20619;-66
2023/04/25 10:00:12;;;;;;;0.10;0.10;;;11.50;99.90;15.40;101560.00;;;;6214476;23;20554;-66
2023/04/25 10:02:48;;;;;;;0.10;0.10;;;11.60;99.90;15.10;101577.00;;;;6189254;23;20178;-66
2023/04/25 10:05:14;;;;;;;0.10;0.10;;;11.70;99.90;15.20;101577.00;;;;6214485;23;20150;-66
2023/04/25 10:07:41;;;;;;;0.10;0.10;;;11.60;99.90;15.10;101586.00;;;;6189015;23;20150;-65
2023/04/25 10:10:12;;;;;;;0.47;0.47;;;11.70;99.90;15.80;101579.00;;;;6215693;23;20606;-66
2023/04/25 10:12:40;;;;;;;0.10;0.10;;;12.00;99.90;15.60;101580.00;;;;6215712;23;20158;-66
2023/04/25 10:15:08;;;;;;;0.10;0.10;;;12.00;99.90;16.30;101589.00;;;;6214675;23;20145;-66
2023/04/25 10:17:38;;;;;;;0.10;0.10;;;12.20;99.90;16.40;101599.00;;;;6188916;23;20576;-66
2023/04/25 10:20:10;;;;;;;0.10;0.10;;;12.60;99.90;16.50;101594.00;;;;6215803;23;20144;-66
2023/04/25 10:33:49;;;;;;;0.20;0.20;;;11.60;99.90;15.40;101553.00;;;;5070337;28;20545;-66
2023/04/25 10:36:53;;;;;;;0.10;0.10;;;12.10;99.90;16.60;101578.00;;;;5050383;28;20211;-66
2023/04/25 10:39:24;;;;;;;0.63;0.63;;;12.70;99.90;16.60;101582.00;;;;5043013;28;20269;-66
2023/04/25 10:42:11;;;;;;;0.20;0.20;;;13.30;99.90;17.20;101585.00;;;;5049304;28;20205;-66
2023/04/25 10:45:06;;;;;;;0.10;0.10;;;13.50;99.90;17.40;101612.00;;;;5049951;28;20179;-66
2023/04/25 10:48:38;;;;;;;0.10;0.10;;;13.80;99.90;17.50;101584.00;;;;5043624;28;20190;-66
2023/04/25 10:51:15;;;;;;;0.40;0.40;;;13.90;99.90;17.90;101583.00;;;;5049125;28;20204;-66
2023/04/25 10:53:47;;;;;;;0.10;0.10;;;13.90;99.90;17.80;101588.00;;;;5047621;28;20185;-66
2023/04/25 10:56:21;;;;;;;0.90;0.63;;;14.20;99.90;16.30;101595.00;;;;5032287;28;20213;-66
2023/04/25 10:58:48;;;;;;;0.30;0.30;;;13.90;99.90;16.30;101587.00;;;;5049024;28;20329;-65
2023/04/25 11:01:19;;;;;;;0.10;0.10;;;13.50;99.90;15.70;101566.00;;;;5048565;28;20297;-65
2023/04/25 11:03:48;;;;;;;0.10;0.10;;;12.90;99.90;16.80;101561.00;;;;5049753;28;20199;-66
2023/04/25 11:06:23;;;;;;;0.50;0.50;;;13.10;99.90;17.60;101557.00;;;;5032393;28;20267;-66
2023/04/25 11:08:51;;;;;;;0.10;0.10;;;14.00;99.90;18.10;101542.00;;;;5048435;28;20194;-66
2023/04/25 11:11:20;;;;;;;0.27;0.20;;;14.40;99.90;17.80;101548.00;;;;5048615;28;20294;-66
2023/04/25 11:13:50;;;;;;;0.20;0.20;;;15.00;99.90;18.30;101534.00;;;;5048126;28;20195;-66
2023/04/25 11:16:17;;;;;;;0.20;0.13;;;15.10;99.90;17.50;101537.00;;;;5049762;28;20246;-66
2023/04/25 11:18:44;;;;;;;0.20;0.20;;;14.80;99.90;17.90;101535.00;;;;5048245;28;20189;-66
2023/04/25 11:21:16;;;;;;;0.10;0.10;;;14.70;99.90;17.30;101547.00;;;;5048494;28;20183;-66
2023/04/25 11:23:46;;;;;;;2.00;0.93;;;14.50;99.90;17.60;101545.00;;;;5048235;28;20183;-65
2023/04/25 11:26:14;;;;;;;0.10;0.10;;;14.80;99.90;17.90;101546.00;;;;5048906;28;20179;-66
2023/04/25 11:28:45;;;;;;;0.10;0.10;;;14.80;99.90;18.40;101544.00;;;;5048092;28;20267;-66
2023/04/25 11:31:10;;;;;;;1.20;0.63;;;14.80;99.90;16.90;101573.00;;;;5047981;28;20188;-65
2023/04/25 11:33:40;;;;;;;0.10;0.10;;;14.20;99.90;16.80;101550.00;;;;5028033;28;20254;-66
2023/04/25 11:36:13;;;;;;;0.20;0.20;;;13.70;99.90;17.00;101535.00;;;;5075285;28;20183;-66
2023/04/25 11:38:40;;;;;;;0.33;0.33;;;13.60;99.90;16.00;101597.00;;;;5049488;28;20236;-65
2023/04/25 11:41:06;;;;;;;0.10;0.10;;;13.30;99.90;16.60;101582.00;;;;5047983;28;20254;-65
2023/04/25 11:43:38;;;;;;;0.13;0.13;;;13.10;99.90;16.00;101601.00;;;;5042381;28;20270;-66
2023/04/25 11:46:07;;;;;;;0.30;0.30;;;12.80;99.90;15.30;101606.00;;;;5034355;28;20190;-65
2023/04/25 11:48:41;;;;;;;0.20;0.20;;;12.50;99.90;15.50;101598.00;;;;5034893;28;20185;-66
2023/04/25 11:51:38;;;;;;;0.10;0.10;;;12.50;99.90;16.50;101575.00;;;;5017966;28;20185;-65
2023/04/25 11:54:05;;;;;;;0.20;0.20;;;12.90;99.90;16.50;101597.00;;;;5034998;28;20194;-66
2023/04/25 11:56:34;;;;;;;0.30;0.30;;;13.30;99.90;16.40;101593.00;;;;5034525;28;20197;-66
2023/04/25 11:59:04;;;;;;;0.37;0.30;;;13.40;99.90;17.00;101591.00;;;;5034402;28;20188;-66
2023/04/25 12:01:41;;;;;;;1.70;0.80;;;13.60;99.90;15.60;101601.00;;;;5034077;28;20713;-66
2023/04/25 12:04:20;;;;;;;1.70;0.93;;;13.20;99.90;16.10;101593.00;;;;5015057;28;20649;-66
2023/04/25 12:06:48;;;;;;;0.20;0.20;;;13.30;99.90;15.50;101614.00;;;;5034572;28;20544;-66
2023/04/25 12:09:36;;;;;;;0.10;0.10;;;13.10;99.90;17.00;101599.00;;;;5034060;28;20190;-66
2023/04/25 12:12:07;;;;;;;0.10;0.10;;;13.20;99.90;16.80;101597.00;;;;5034612;28;20219;-66
2023/04/25 12:14:38;;;;;;;0.20;0.20;;;13.70;99.90;17.40;101588.00;;;;5034295;28;20271;-66
2023/04/25 12:17:07;;;;;;;0.40;0.30;;;13.80;99.90;17.00;101598.00;;;;5038686;28;20688;-66
2023/04/25 12:19:41;;;;;;;0.10;0.10;;;14.00;99.90;17.90;101588.00;;;;5034187;28;20275;-66
2023/04/25 12:22:53;;;;;;;0.40;0.40;;;14.20;99.90;16.60;101605.00;;;;5034458;28;20267;-66
2023/04/25 12:25:41;;;;;;;0.10;0.10;;;14.20;99.90;15.50;101609.00;;;;5010805;28;20183;-66
2023/04/25 12:28:31;;;;;;;3.70;1.53;;;13.20;99.90;15.80;101625.00;;;;5031478;28;20218;-66
2023/04/25 12:31:17;;;;;;;0.30;0.30;;;12.90;99.90;13.80;101641.00;;;;5050427;28;20187;-65
2023/04/25 12:34:11;;;;;;;3.50;0.20;;;12.20;99.90;15.00;101647.00;;;;5034988;28;20200;-65
2023/04/25 12:37:13;;;;;;;0.17;0.17;;;11.80;99.90;15.60;101616.00;;;;5026094;28;20267;-65
2023/04/25 12:40:32;;;;;;;0.40;0.40;;;12.00;99.90;14.50;101657.00;;;;5034019;28;20219;-65
2023/04/25 12:43:21;;;;;;;0.40;0.40;;;11.80;99.90;13.90;101661.00;;;;5020597;28;20630;-65
2023/04/25 12:46:28;;;;;;;2.63;0.93;;;11.50;99.90;15.20;101639.00;;;;5064888;28;20197;-66
2023/04/25 12:48:55;;;;;;;0.10;0.10;;;11.80;99.90;15.50;101640.00;;;;5020875;28;20592;-66
2023/04/25 12:51:21;;;;;;;2.37;0.40;;;12.20;99.90;15.30;101644.00;;;;5033072;28;20640;-66
2023/04/25 12:54:21;;;;;;;1.70;0.67;;;12.60;99.90;14.80;101656.00;;;;5033693;28;20236;-65
2023/04/25 12:57:22;;;;;;;0.20;0.20;;;12.30;99.90;15.80;101629.00;;;;5030630;28;20204;-66
2023/04/25 12:59:48;;;;;;;0.63;0.63;;;12.30;99.90;16.30;101625.00;;;;5013378;28;20292;-66
2023/04/25 13:02:55;;;;;;;0.20;0.20;;;12.60;99.90;15.30;101634.00;;;;5034186;28;20712;-65
2023/04/25 13:05:23;;;;;;;0.37;0.37;;;12.90;99.90;15.30;101629.00;;;;5027923;28;20195;-66
2023/04/25 13:07:51;;;;;;;0.97;0.80;;;12.60;99.90;15.40;101631.00;;;;5034192;28;20206;-66
2023/04/25 13:10:17;;;;;;;0.40;0.40;;;12.80;99.90;15.30;101643.00;;;;5016676;28;20682;-65
2023/04/25 13:12:44;;;;;;;0.27;0.27;;;12.60;99.90;16.30;101588.00;;;;5046494;28;20295;-66
2023/04/25 13:15:11;;;;;;;6.63;2.30;;;12.80;99.90;15.50;101638.00;;;;5031566;28;20184;-66
2023/04/25 13:17:41;;;;;;;0.10;0.10;;;12.70;99.90;15.30;101635.00;;;;5032940;28;20174;-66
2023/04/25 13:20:23;;;;;;;0.33;0.33;;;12.60;99.90;14.50;101652.00;;;;5032929;28;20184;-65
2023/04/25 13:22:49;;;;;;;0.63;0.63;;;12.30;99.90;15.40;101648.00;;;;5048139;28;20194;-66
2023/04/25 13:25:57;;;;;;;0.10;0.10;;;12.20;99.90;15.50;101648.00;;;;5016054;28;20202;-65
2023/04/25 13:28:25;;;;;;;0.23;0.23;;;12.30;99.90;15.60;101650.00;;;;5020736;28;20189;-65
2023/04/25 13:31:02;;;;;;;0.10;0.10;;;12.30;99.90;15.60;101631.00;;;;5033069;28;20656;-65
2023/04/25 13:33:36;;;;;;;0.40;0.40;;;12.20;99.90;14.70;101662.00;;;;5032477;28;20359;-65
2023/04/25 13:36:05;;;;;;;0.43;0.30;;;12.00;99.90;15.30;101643.00;;;;5032493;28;20203;-66
2023/04/25 13:38:31;;;;;;;0.67;0.67;;;12.30;99.90;14.80;101649.00;;;;5032579;28;20189;-65
2023/04/25 13:41:17;;;;;;;0.57;0.30;;;12.10;99.90;15.80;101655.00;;;;5032255;28;20176;-66
2023/04/25 13:43:43;;;;;;;2.30;0.30;;;12.40;99.90;15.20;101632.00;;;;5027597;28;20216;-65
2023/04/25 13:46:29;;;;;;;0.10;0.10;;;12.40;99.90;15.80;101637.00;;;;5031920;28;20187;-65
2023/04/25 13:48:58;;;;;;;0.70;0.70;;;12.50;99.90;14.70;101657.00;;;;5024961;28;20181;-66
2023/04/25 13:51:25;;;;;;;0.33;0.20;;;12.40;99.90;16.40;101619.00;;;;5030066;28;20218;-66
2023/04/25 13:54:47;;;;;;;0.63;0.57;;;12.70;99.90;15.20;101655.00;;;;5032273;28;20192;-66
2023/04/25 13:57:59;;;;;;;0.20;0.20;;;12.40;99.90;15.60;101648.00;;;;5028020;28;20214;-65
2023/04/25 14:01:03;;;;;;;0.10;0.10;;;12.00;99.90;15.60;101615.00;;;;5043323;28;20597;-65
2023/04/25 14:03:31;;;;;;;0.10;0.10;;;12.20;99.90;16.20;101637.00;;;;5058472;28;20692;-65
2023/04/25 14:06:06;;;;;;;0.10;0.10;;;12.60;99.90;16.20;101639.00;;;;5031727;28;20258;-65
2023/04/25 14:08:32;;;;;;;0.30;0.30;;;12.80;99.90;16.20;101644.00;;;;5048537;28;20618;-65
2023/04/25 14:10:57;;;;;;;0.23;0.23;;;13.00;99.90;14.70;101659.00;;;;5032043;28;20271;-65
2023/04/25 14:13:58;;;;;;;0.77;0.20;;;12.30;99.90;14.80;101652.00;;;;5032907;28;20208;-65
2023/04/25 14:16:24;;;;;;;0.20;0.20;;;12.00;99.90;15.30;101659.00;;;;5033096;28;20508;-65
2023/04/25 14:18:50;;;;;;;0.40;0.40;;;12.10;99.90;14.90;101667.00;;;;5032396;28;20228;-65
2023/04/25 14:21:20;;;;;;;0.10;0.10;;;12.00;99.90;16.00;101655.00;;;;5032240;28;20640;-65
2023/04/25 14:23:47;;;;;;;0.87;0.50;;;12.20;99.90;13.90;101667.00;;;;5025747;28;20572;-65
2023/04/25 14:26:13;;;;;;;0.23;0.23;;;11.80;99.90;14.70;101670.00;;;;5014932;28;20195;-65
2023/04/25 14:28:39;;;;;;;4.47;1.27;;;11.70;99.90;15.20;101664.00;;;;5033511;28;20187;-65
2023/04/25 14:31:05;;;;;;;0.60;0.50;;;11.90;99.90;13.90;101675.00;;;;5033121;28;20535;-65
2023/04/25 14:33:42;;;;;;;0.10;0.10;;;11.70;99.90;14.40;101648.00;;;;5032132;28;20252;-65
2023/04/25 14:36:12;;;;;;;2.40;2.20;;;11.40;99.90;15.20;101632.00;;;;5031956;28;20208;-65
2023/04/25 14:38:37;;;;;;;0.10;0.10;;;11.70;99.90;15.30;101633.00;;;;5031949;28;20174;-65
2023/04/25 14:41:04;;;;;;;0.30;0.30;;;11.90;99.90;15.30;101667.00;;;;5033015;28;20238;-65
2023/04/25 14:43:30;;;;;;;0.30;0.30;;;12.20;99.90;15.30;101675.00;;;;5031372;28;20194;-65
2023/04/25 14:46:38;;;;;;;0.20;0.20;;;12.30;99.90;15.50;101682.00;;;;5033041;28;20187;-65
2023/04/25 14:49:05;;;;;;;3.20;0.57;;;12.10;99.90;14.90;101676.00;;;;5031261;28;20179;-65
2023/04/25 14:52:34;;;;;;;0.20;0.20;;;12.10;99.90;15.00;101672.00;;;;5032322;28;20219;-65
2023/04/25 14:55:04;;;;;;;0.10;0.10;;;12.00;99.90;15.60;101674.00;;;;5026937;28;20194;-65
2023/04/25 14:57:40;;;;;;;0.10;0.10;;;12.30;99.90;15.90;101649.00;;;;5031737;28;20618;-65
2023/04/25 15:00:09;;;;;;;0.37;0.37;;;12.40;99.90;15.20;101654.00;;;;5031382;28;20222;-65
2023/04/25 15:03:37;;;;;;;0.10;0.10;;;12.40;99.90;14.80;101695.00;;;;5031603;28;20188;-65
2023/04/25 15:06:02;;;;;;;0.20;0.20;;;12.10;99.90;14.90;101686.00;;;;5025828;28;20684;-65
2023/04/25 15:08:31;;;;;;;0.37;0.37;;;12.00;99.90;14.90;101666.00;;;;5031694;28;20270;-65
2023/04/25 15:11:00;;;;;;;0.30;0.30;;;11.90;99.90;15.20;101686.00;;;;5031600;28;20198;-65
2023/04/25 15:13:47;;;;;;;0.20;0.20;;;12.10;99.90;15.10;101695.00;;;;5031202;28;20208;-65
2023/04/25 15:16:58;;;;;;;0.40;0.40;;;12.30;99.90;14.70;101690.00;;;;5064612;28;20201;-65
2023/04/25 15:19:24;;;;;;;0.10;0.10;;;11.70;99.90;14.80;101707.00;;;;5031781;28;20241;-65
2023/04/25 15:21:50;;;;;;;0.17;0.17;;;11.80;99.90;15.70;101661.00;;;;5036223;28;20190;-65
2023/04/25 15:24:16;;;;;;;0.47;0.47;;;12.00;99.90;15.30;101707.00;;;;5018374;28;20241;-65
2023/04/25 15:26:42;;;;;;;0.50;0.50;;;12.10;99.90;15.20;101707.00;;;;5036517;28;20224;-65
2023/04/25 15:29:08;;;;;;;0.17;0.17;;;12.10;99.90;14.80;101716.00;;;;5034801;28;20212;-65
2023/04/25 15:31:34;;;;;;;0.10;0.10;;;11.90;99.90;14.80;101711.00;;;;5036278;28;20687;-65
2023/04/25 15:34:00;;;;;;;0.20;0.20;;;11.80;99.90;15.10;101715.00;;;;5036097;28;20201;-65
2023/04/25 15:37:00;;;;;;;0.20;0.20;;;11.80;99.90;14.20;101715.00;;;;5036054;28;20258;-65
2023/04/25 15:40:10;;;;;;;0.30;0.30;;;11.70;99.90;13.80;101724.00;;;;5035795;28;20199;-65
2023/04/25 15:42:54;;;;;;;0.10;0.10;;;11.30;99.90;15.20;101716.00;;;;5043148;28;20551;-65
2023/04/25 15:45:49;;;;;;;0.10;0.10;;;11.70;99.90;15.90;101700.00;;;;5023509;28;20637;-65
2023/04/25 15:48:53;;;;;;;3.80;0.90;;;12.20;99.90;15.30;101714.00;;;;5034602;28;20206;-65
2023/04/25 15:51:57;;;;;;;0.30;0.30;;;12.30;99.90;14.80;101722.00;;;;5012547;28;20331;-66
2023/04/25 15:55:00;;;;;;;3.50;0.60;;;11.90;99.90;14.50;101726.00;;;;5034867;28;20251;-65
2023/04/25 15:58:01;;;;;;;0.20;0.20;;;11.70;99.90;14.70;101700.00;;;;5034630;28;20640;-65
2023/04/25 16:01:07;;;;;;;0.10;0.10;;;11.70;99.90;14.00;101745.00;;;;5017800;28;20187;-65
2023/04/25 16:04:12;;;;;;;0.20;0.20;;;11.50;99.90;13.90;101732.00;;;;5028276;28;20182;-65
2023/04/25 16:07:22;;;;;;;0.50;0.50;;;11.20;99.90;14.40;101728.00;;;;5023955;28;20191;-65
2023/04/25 16:10:45;;;;;;;0.30;0.30;;;11.30;99.90;14.40;101697.00;;;;5018193;28;20183;-65
2023/04/25 16:14:03;;;;;;;0.20;0.20;;;11.50;99.90;15.30;101688.00;;;;5039749;28;20215;-65
2023/04/25 16:17:05;;;;;;;0.10;0.10;;;11.70;99.90;15.50;101723.00;;;;5060513;28;20194;-65
2023/04/25 16:19:55;;;;;;;0.87;0.70;;;11.90;99.90;14.60;101739.00;;;;5029346;28;20658;-65
2023/04/25 16:22:58;;;;;;;0.87;0.60;;;11.80;99.90;14.70;101731.00;;;;5025455;28;20278;-65
2023/04/25 16:26:07;;;;;;;0.30;0.30;;;11.50;99.90;14.60;101704.00;;;;5005061;28;20439;-65
2023/04/25 16:29:29;;;;;;;0.47;0.30;;;11.50;99.90;14.90;101731.00;;;;5027978;28;20279;-65
2023/04/25 16:32:30;;;;;;;0.10;0.10;;;11.50;99.90;13.90;101739.00;;;;5051536;28;20211;-65
2023/04/25 16:35:43;;;;;;;0.20;0.20;;;11.20;99.90;13.40;101758.00;;;;5030161;28;20215;-65
2023/04/25 16:38:46;;;;;;;0.23;0.23;;;11.10;99.90;14.10;101743.00;;;;5020041;28;20660;-65
2023/04/25 16:41:37;;;;;;;0.10;0.10;;;11.20;99.90;13.90;101736.00;;;;5049931;28;20186;-65
2023/04/25 16:44:20;;;;;;;0.53;0.53;;;11.20;99.90;13.70;101733.00;;;;5028331;28;20189;-65
2023/04/25 16:47:04;;;;;;;3.13;1.27;;;11.00;99.90;14.70;101705.00;;;;5033571;28;20187;-65
2023/04/25 16:49:32;;;;;;;0.43;0.40;;;11.20;99.90;13.50;101749.00;;;;5042478;28;20183;-65
2023/04/25 16:51:58;;;;;;;7.23;6.13;;;11.10;99.90;14.50;101745.00;;;;5016989;28;20211;-65
2023/04/25 16:54:41;;;;;;;0.27;0.27;;;11.30;99.90;14.40;101704.00;;;;5033459;28;20187;-65
2023/04/25 16:57:09;;;;;;;0.20;0.20;;;11.30;99.90;15.10;101719.00;;;;5033327;28;20190;-65
2023/04/25 16:59:55;;;;;;;0.10;0.10;;;11.40;99.90;15.00;101726.00;;;;5022233;28;20191;-65
2023/04/25 17:02:21;;;;;;;0.23;0.23;;;11.60;99.90;15.20;101708.00;;;;5029031;28;20249;-65
2023/04/25 17:04:49;;;;;;;0.43;0.43;;;11.60;99.90;14.20;101729.00;;;;5034753;28;20187;-65
2023/04/25 17:07:23;;;;;;;0.20;0.20;;;11.30;99.90;15.40;101744.00;;;;5016745;28;20274;-66
2023/04/25 17:09:52;;;;;;;0.10;0.10;;;11.50;99.90;15.00;101740.00;;;;5014443;28;20222;-65
2023/04/25 17:12:18;;;;;;;0.87;0.87;;;11.50;99.90;14.40;101761.00;;;;5045477;28;20217;-65
2023/04/25 17:14:54;;;;;;;1.13;1.13;;;11.50;99.90;13.60;101764.00;;;;5034617;28;20216;-65
2023/04/25 17:17:20;;;;;;;0.73;0.73;;;11.10;99.90;13.70;101766.00;;;;5030462;28;20183;-65
2023/04/25 17:19:46;;;;;;;0.20;0.20;;;10.90;99.90;13.90;101768.00;;;;5031075;28;20186;-65
2023/04/25 17:22:12;;;;;;;1.60;0.40;;;10.80;99.90;13.60;101788.00;;;;5034218;28;20270;-65
2023/04/25 17:24:39;;;;;;;0.83;0.37;;;10.80;99.90;13.40;101790.00;;;;5032999;28;20635;-65
2023/04/25 17:27:05;;;;;;;0.13;0.13;;;10.60;99.90;14.00;101782.00;;;;5032838;28;20186;-65
2023/04/25 17:29:32;;;;;;;3.30;0.40;;;10.70;99.90;13.30;101789.00;;;;5034201;28;20733;-65
2023/04/25 17:31:58;;;;;;;0.10;0.10;;;10.50;99.90;14.30;101787.00;;;;5016531;28;20205;-65
2023/04/25 17:34:27;;;;;;;0.20;0.20;;;10.70;99.90;13.80;101781.00;;;;5032847;28;20614;-65
2023/04/25 17:36:53;;;;;;;0.20;0.20;;;10.60;99.90;13.80;101779.00;;;;5032469;28;20552;-65
2023/04/25 17:39:56;;;;;;;0.10;0.10;;;10.50;99.90;14.50;101744.00;;;;5033863;28;20199;-65
2023/04/25 17:42:22;;;;;;;0.33;0.33;;;10.70;99.90;14.20;101763.00;;;;5014159;28;20552;-65
2023/04/25 17:44:49;;;;;;;0.10;0.10;;;10.90;99.90;13.10;101799.00;;;;5027953;28;20699;-65
2023/04/25 17:47:16;;;;;;;0.20;0.20;;;10.60;99.90;13.60;101774.00;;;;5032264;28;20534;-65
2023/04/25 17:49:42;;;;;;;0.20;0.20;;;10.40;99.90;13.30;101796.00;;;;5016086;28;20208;-65
2023/04/25 17:52:08;;;;;;;0.20;0.20;;;10.50;99.90;13.00;101798.00;;;;5032519;28;20205;-65
2023/04/25 17:54:35;;;;;;;0.20;0.20;;;10.30;99.90;13.70;101787.00;;;;5032471;28;20200;-65
2023/04/25 17:57:01;;;;;;;0.10;0.10;;;10.40;99.90;14.10;101757.00;;;;5033258;28;20255;-65
2023/04/25 17:59:27;;;;;;;0.20;0.20;;;10.60;99.90;14.00;101781.00;;;;5032594;28;20193;-65
2023/04/25 18:01:53;;;;;;;0.10;0.10;;;10.60;99.90;14.70;101750.00;;;;5033227;28;20194;-65
2023/04/25 18:04:19;;;;;;;0.20;0.20;;;10.80;99.90;13.60;101785.00;;;;5032422;28;20192;-65
2023/04/25 18:06:51;;;;;;;0.23;0.23;;;10.60;99.90;13.30;101795.00;;;;5048401;28;20461;-65
2023/04/25 18:09:17;;;;;;;0.10;0.10;;;10.30;99.90;14.10;101793.00;;;;5032383;28;20182;-65
2023/04/25 18:11:54;;;;;;;0.30;0.30;;;10.40;99.90;13.80;101795.00;;;;5032234;28;20532;-64
2023/04/25 18:14:21;;;;;;;0.50;0.50;;;10.40;99.90;14.10;101794.00;;;;5031995;28;20712;-64
2023/04/25 18:16:52;;;;;;;0.30;0.30;;;10.50;99.90;13.30;101797.00;;;;5015895;28;20235;-64
2023/04/25 18:19:21;;;;;;;0.43;0.43;;;10.40;99.90;12.90;101823.00;;;;5015287;28;20198;-65
2023/04/25 18:22:54;;;;;;;0.10;0.10;;;10.20;99.90;13.20;101828.00;;;;5032635;28;20217;-64
2023/04/25 18:25:56;;;;;;;0.30;0.20;;;9.90;99.90;12.80;101827.00;;;;5044503;28;20208;-65
2023/04/25 18:28:22;;;;;;;0.10;0.10;;;10.00;99.90;12.80;101838.00;;;;5017313;28;20197;-65
2023/04/25 18:30:49;;;;;;;0.10;0.10;;;9.80;99.90;13.70;101824.00;;;;5028246;28;20196;-65
2023/04/25 18:33:15;;;;;;;0.10;0.10;;;9.90;99.90;13.20;101838.00;;;;5011932;28;20220;-65
2023/04/25 18:35:44;;;;;;;0.20;0.20;;;9.80;99.90;13.50;101825.00;;;;5026834;28;20212;-65
2023/04/25 18:38:10;;;;;;;0.13;0.13;;;9.90;99.90;13.00;101830.00;;;;5031544;28;20193;-65
2023/04/25 18:41:02;;;;;;;2.67;1.58;;;9.70;99.90;13.50;101838.00;;;;5032727;28;20412;-65
2023/04/25 18:43:28;;;;;;;1.07;1.07;;;9.90;99.90;13.50;101836.00;;;;5031271;28;20191;-65
2023/04/25 18:45:55;;;;;;;0.30;0.30;;;9.90;99.90;13.30;101811.00;;;;5031895;28;20655;-65